KAGC/AGC METAR and TAF weather

Enter ICAO airport designator
Station Type Date Time Source
KAGC METAR 2019/02/23 01:53 UTC NOAA

KAGC 230153Z 00000KT 10SM CLR 02/M04 A3036 RMK AO2 SLP296 T00221039


Station Type Date Time Source
KAGC Decoded METAR 2019/02/23 01:53 UTC NOAA

PITTSBURGH ALLEGHENY CTY., PA, United States (KAGC) 40-21N 079-55W 389M
Feb 22, 2019 - 08:53 PM EST / 2019.02.23 0153 UTC
Wind: Calm:0
Visibility: 10 mile(s):0
Sky conditions: clear
Temperature: 36.0 F (2.2 C)
Dew Point: 25.0 F (-3.9 C)
Relative Humidity: 63%
Pressure (altimeter): 30.36 in. Hg (1028 hPa)
ob: KAGC 230153Z 00000KT 10SM CLR 02/M04 A3036 RMK AO2 SLP296 T00221039
cycle: 2

Station Type Date Time Source
KAGC TAF 2019/02/22 18:39 UTC NOAA

TAF KAGC 221737Z 2218/2318 35003KT P6SM OVC250
FM231400 12007KT P6SM VCSH OVC040


Example: see airport list